Time;durP1;ratioP1;P1;durP2;ratioP2;P2;SDS_P1;SDS_P2;PMS_P1;PMS_P2;Temp;Humidity;BMP_temperature;BMP_pressure;BME280_temperature;BME280_humidity;BME280_pressure;Samples;Min_cycle;Max_cycle;Signal;HPM_P1;HPM_P2
2021/12/24 00:00:20;;;;;;;2.87;1.60;;;7.20;99.90;;;;;;5056434;28;20175;-80
2021/12/24 00:02:46;;;;;;;2.93;1.53;;;7.20;99.90;;;;;;5056994;28;20182;-79
2021/12/24 00:05:12;;;;;;;2.70;1.90;;;7.10;99.90;;;;;;5058376;28;20541;-79
2021/12/24 00:07:39;;;;;;;1.50;1.40;;;7.10;99.90;;;;;;5058385;28;20208;-79
2021/12/24 00:10:08;;;;;;;2.03;1.53;;;7.20;99.90;;;;;;5058481;28;20430;-79
2021/12/24 00:12:36;;;;;;;1.77;1.63;;;7.20;99.90;;;;;;5059069;28;20178;-79
2021/12/24 00:15:14;;;;;;;4.83;1.67;;;7.10;99.90;;;;;;5056998;28;20185;-79
2021/12/24 00:17:40;;;;;;;1.90;1.60;;;7.10;99.90;;;;;;5058496;28;20212;-79
2021/12/24 00:20:26;;;;;;;3.17;2.00;;;7.20;99.90;;;;;;5056495;28;20182;-79
2021/12/24 00:36:14;;;;;;;2.73;1.53;;;7.20;99.90;;;;;;5060542;28;20227;-79
2021/12/24 00:38:40;;;;;;;2.73;1.80;;;7.20;99.90;;;;;;5058680;28;20582;-79
2021/12/24 00:41:05;;;;;;;2.20;1.70;;;7.30;99.90;;;;;;5060235;28;20172;-79
2021/12/24 00:43:31;;;;;;;1.97;1.67;;;7.30;99.90;;;;;;5060313;28;20212;-79
2021/12/24 00:45:57;;;;;;;3.87;1.73;;;7.30;99.90;;;;;;5060310;28;20209;-79
2021/12/24 00:48:23;;;;;;;3.07;1.80;;;7.30;99.90;;;;;;5061561;28;20178;-79
2021/12/24 00:51:17;;;;;;;2.10;1.43;;;7.30;99.90;;;;;;5060775;28;20235;-79
2021/12/24 00:56:10;;;;;;;2.43;1.40;;;7.30;99.90;;;;;;5061893;28;20220;-79
2021/12/24 00:58:37;;;;;;;3.70;1.93;;;7.40;99.90;;;;;;5060156;28;20185;-79
2021/12/24 01:01:04;;;;;;;4.67;2.00;;;7.50;99.90;;;;;;5060032;28;20174;-79
2021/12/24 01:03:30;;;;;;;2.80;1.70;;;7.50;99.90;;;;;;5061427;28;20177;-79
2021/12/24 01:05:55;;;;;;;3.40;1.67;;;7.60;99.90;;;;;;5063321;28;20622;-79
2021/12/24 01:08:21;;;;;;;2.20;1.50;;;7.70;99.90;;;;;;5060637;28;20184;-79
2021/12/24 01:10:53;;;;;;;2.83;2.00;;;7.70;99.90;;;;;;5060541;28;20304;-79
2021/12/24 01:13:19;;;;;;;2.10;1.77;;;7.70;99.90;;;;;;5061841;28;20173;-79
2021/12/24 01:16:27;;;;;;;1.50;1.37;;;7.70;99.90;;;;;;5060862;28;20208;-80
2021/12/24 01:19:23;;;;;;;2.73;1.63;;;7.70;99.90;;;;;;5060682;28;20174;-80
2021/12/24 01:24:00;;;;;;;1.53;1.33;;;7.80;99.90;;;;;;5062140;28;20223;-79
2021/12/24 01:39:53;;;;;;;1.23;1.13;;;7.90;99.90;;;;;;5060844;28;20208;-79
2021/12/24 01:42:40;;;;;;;4.90;2.53;;;8.00;99.90;;;;;;5059169;28;20276;-79
2021/12/24 01:45:21;;;;;;;2.17;1.27;;;8.00;99.90;;;;;;5060111;28;20154;-79
2021/12/24 01:47:48;;;;;;;2.33;1.73;;;7.90;99.90;;;;;;5060014;28;20180;-79
2021/12/24 01:50:16;;;;;;;3.30;1.40;;;7.80;99.90;;;;;;5058120;28;20205;-79
2021/12/24 01:52:41;;;;;;;1.57;1.47;;;7.80;99.90;;;;;;5058477;28;20182;-79
2021/12/24 01:55:09;;;;;;;1.93;1.30;;;7.60;99.90;;;;;;5059038;28;20199;-79
2021/12/24 01:57:36;;;;;;;3.97;1.50;;;7.50;99.90;;;;;;5057629;28;20205;-79
2021/12/24 02:00:05;;;;;;;1.40;1.23;;;7.40;99.90;;;;;;5056931;28;20182;-79
2021/12/24 02:02:31;;;;;;;2.10;1.23;;;7.30;99.90;;;;;;5058055;28;20181;-78
2021/12/24 02:04:57;;;;;;;2.93;2.00;;;7.40;99.90;;;;;;5058105;28;20172;-79
2021/12/24 02:07:23;;;;;;;3.17;1.70;;;7.40;99.90;;;;;;5062674;28;20301;-79
2021/12/24 02:09:48;;;;;;;2.40;1.70;;;7.50;99.90;;;;;;5061527;28;20209;-79
2021/12/24 02:12:16;;;;;;;4.10;1.50;;;7.60;99.90;;;;;;5060834;28;20170;-78
2021/12/24 02:14:46;;;;;;;2.67;1.57;;;7.70;99.90;;;;;;5060939;28;20654;-79
2021/12/24 02:30:45;;;;;;;1.60;1.30;;;7.70;99.90;;;;;;5061396;28;20169;-80
2021/12/24 02:33:10;;;;;;;1.50;1.40;;;7.80;99.90;;;;;;5059888;28;20181;-79
2021/12/24 02:35:36;;;;;;;2.33;1.40;;;7.70;99.90;;;;;;5061423;28;20180;-79
2021/12/24 02:38:03;;;;;;;2.03;1.33;;;7.80;99.90;;;;;;5063019;28;20239;-79
2021/12/24 02:40:29;;;;;;;1.97;1.77;;;7.90;99.90;;;;;;5059094;28;20255;-79
2021/12/24 02:42:56;;;;;;;1.70;1.50;;;8.00;99.90;;;;;;5059693;28;20179;-79
2021/12/24 02:45:24;;;;;;;1.53;1.10;;;8.10;99.90;;;;;;5059591;28;20724;-79
2021/12/24 02:55:56;;;;;;;1.30;1.20;;;8.00;99.90;;;;;;5067496;28;20203;-78
2021/12/24 02:58:22;;;;;;;1.73;1.23;;;7.90;99.90;;;;;;5063396;28;20191;-79
2021/12/24 03:00:48;;;;;;;2.43;1.27;;;7.90;99.90;;;;;;5066823;28;20180;-78
2021/12/24 03:03:14;;;;;;;1.03;1.03;;;7.90;99.90;;;;;;5067458;28;20588;-78
2021/12/24 03:05:40;;;;;;;1.37;1.20;;;8.00;99.90;;;;;;5060585;28;20170;-79
2021/12/24 03:08:06;;;;;;;3.27;1.30;;;8.00;99.90;;;;;;5059100;28;20174;-79
2021/12/24 03:10:33;;;;;;;1.47;1.30;;;7.90;99.90;;;;;;5058362;28;20182;-79
2021/12/24 03:12:58;;;;;;;1.03;0.93;;;8.00;99.90;;;;;;5058454;28;20187;-79
2021/12/24 03:15:25;;;;;;;3.67;1.37;;;8.00;99.90;;;;;;5059738;28;20188;-79
2021/12/24 03:17:55;;;;;;;1.73;1.30;;;8.00;99.90;;;;;;5058931;28;20700;-79
2021/12/24 03:20:22;;;;;;;1.53;1.27;;;7.90;99.90;;;;;;5058367;28;20170;-79
2021/12/24 03:25:32;;;;;;;1.53;1.17;;;7.80;99.90;;;;;;5060561;28;20194;-79
2021/12/24 03:27:58;;;;;;;2.23;1.03;;;7.80;99.90;;;;;;5059464;28;20183;-79
2021/12/24 03:30:24;;;;;;;1.43;1.30;;;7.70;99.90;;;;;;5058428;28;20234;-79
2021/12/24 03:32:50;;;;;;;1.50;1.40;;;7.70;99.90;;;;;;5058905;28;20205;-79
2021/12/24 03:35:15;;;;;;;1.80;1.33;;;7.70;99.90;;;;;;5058766;28;20189;-79
2021/12/24 03:37:41;;;;;;;1.83;1.23;;;7.60;99.90;;;;;;5059302;28;20276;-79
2021/12/24 03:40:07;;;;;;;1.17;1.00;;;7.60;99.90;;;;;;5059283;28;20178;-79
2021/12/24 03:42:37;;;;;;;1.73;1.53;;;7.50;99.90;;;;;;5060132;28;20224;-79
2021/12/24 03:45:19;;;;;;;1.30;1.10;;;7.50;99.90;;;;;;5060353;28;20220;-79
2021/12/24 03:47:52;;;;;;;1.33;1.10;;;7.50;99.90;;;;;;5060027;28;20191;-79
2021/12/24 03:50:17;;;;;;;1.83;1.40;;;7.40;99.90;;;;;;5060012;28;20189;-79
2021/12/24 03:53:05;;;;;;;1.50;1.40;;;7.40;99.90;;;;;;5060352;28;20174;-79
2021/12/24 03:55:31;;;;;;;1.90;1.40;;;7.20;99.90;;;;;;5061125;28;20195;-79
2021/12/24 03:57:56;;;;;;;2.43;1.47;;;7.20;99.90;;;;;;5060161;28;20215;-79
2021/12/24 04:00:27;;;;;;;1.87;1.40;;;7.10;99.90;;;;;;5058288;28;20178;-79
2021/12/24 04:02:53;;;;;;;1.50;1.40;;;7.10;99.90;;;;;;5057558;28;20665;-79
2021/12/24 04:05:19;;;;;;;1.40;1.30;;;7.10;99.90;;;;;;5058897;28;20171;-79
2021/12/24 04:07:45;;;;;;;2.47;1.60;;;7.10;99.90;;;;;;5058331;28;20195;-79
2021/12/24 04:10:25;;;;;;;2.17;1.73;;;7.00;99.90;;;;;;5058322;28;20262;-79
2021/12/24 04:12:51;;;;;;;2.90;1.50;;;7.00;99.90;;;;;;5058889;28;20619;-79
2021/12/24 04:15:17;;;;;;;1.20;1.10;;;7.00;99.90;;;;;;5061508;28;20179;-79
2021/12/24 04:17:44;;;;;;;1.43;1.27;;;7.00;99.90;;;;;;5060697;28;20203;-79
2021/12/24 04:25:28;;;;;;;1.50;1.40;;;7.00;99.90;;;;;;5062792;28;20167;-79
2021/12/24 04:27:58;;;;;;;1.40;1.30;;;7.00;99.90;;;;;;5061552;28;20177;-79
2021/12/24 04:30:29;;;;;;;1.43;1.33;;;7.00;99.90;;;;;;5061602;28;20203;-79
2021/12/24 04:38:13;;;;;;;1.50;1.40;;;7.20;99.90;;;;;;5064923;28;20214;-79
2021/12/24 04:51:43;;;;;;;1.73;1.27;;;7.10;99.90;;;;;;5059139;28;20726;-79
2021/12/24 05:02:27;;;;;;;1.57;1.37;;;7.00;99.90;;;;;;5058021;28;20211;-78
2021/12/24 05:05:06;;;;;;;1.50;1.40;;;7.00;99.90;;;;;;5059577;28;20707;-78
2021/12/24 05:10:16;;;;;;;1.60;1.50;;;6.90;99.90;;;;;;5064030;28;20631;-79
2021/12/24 05:12:42;;;;;;;3.13;1.40;;;6.90;99.90;;;;;;5060577;28;20176;-78
2021/12/24 05:15:10;;;;;;;2.10;1.60;;;6.90;99.90;;;;;;5061093;28;20514;-79
2021/12/24 05:23:05;;;;;;;1.50;1.40;;;6.80;99.90;;;;;;5060766;28;20282;-78
2021/12/24 05:25:31;;;;;;;1.20;1.10;;;6.90;99.90;;;;;;5058231;28;20171;-79
2021/12/24 05:27:56;;;;;;;1.53;1.40;;;6.90;99.90;;;;;;5060945;28;20171;-79
2021/12/24 05:30:24;;;;;;;2.10;1.90;;;6.90;99.90;;;;;;5060147;28;20274;-79
2021/12/24 05:32:50;;;;;;;1.60;1.50;;;6.90;99.90;;;;;;5060671;28;20180;-79
2021/12/24 05:35:16;;;;;;;2.23;1.43;;;6.90;99.90;;;;;;5060535;28;20594;-79
2021/12/24 05:37:41;;;;;;;1.70;1.27;;;6.90;99.90;;;;;;5060369;28;20208;-78
2021/12/24 05:40:08;;;;;;;2.23;1.43;;;6.90;99.90;;;;;;5060165;28;20168;-79
2021/12/24 05:42:34;;;;;;;4.60;1.70;;;6.80;99.90;;;;;;5061023;28;20226;-79
2021/12/24 05:45:04;;;;;;;2.17;1.60;;;6.80;99.90;;;;;;5061592;28;20176;-79
2021/12/24 05:47:30;;;;;;;2.07;1.50;;;6.80;99.90;;;;;;5061003;28;20292;-79
2021/12/24 05:49:56;;;;;;;1.50;1.40;;;6.90;99.90;;;;;;5061311;28;20196;-79
2021/12/24 05:52:22;;;;;;;1.30;1.20;;;6.90;99.90;;;;;;5061792;28;20542;-79
2021/12/24 05:54:47;;;;;;;1.70;1.50;;;6.80;99.90;;;;;;5059853;28;20175;-79
2021/12/24 05:57:14;;;;;;;1.50;1.40;;;6.80;99.90;;;;;;5060021;28;20219;-79
2021/12/24 05:59:39;;;;;;;1.60;1.50;;;6.80;99.90;;;;;;5059149;28;20183;-79
2021/12/24 06:02:05;;;;;;;1.43;1.20;;;6.80;99.90;;;;;;5060552;28;20176;-79
2021/12/24 06:04:31;;;;;;;2.10;1.63;;;6.80;99.90;;;;;;5059752;28;20572;-79
2021/12/24 06:06:56;;;;;;;1.50;1.40;;;6.80;99.90;;;;;;5062094;28;20195;-79
2021/12/24 06:09:22;;;;;;;1.37;1.23;;;6.90;99.90;;;;;;5062631;28;20175;-79
2021/12/24 06:11:48;;;;;;;2.27;1.73;;;6.80;99.90;;;;;;5063147;28;20176;-79
2021/12/24 06:14:14;;;;;;;1.80;1.37;;;6.80;99.90;;;;;;5065340;28;20204;-79
2021/12/24 06:17:00;;;;;;;3.00;1.47;;;6.80;99.90;;;;;;5061331;28;20220;-79
2021/12/24 06:19:26;;;;;;;1.30;1.20;;;6.90;99.90;;;;;;5060256;28;20163;-79
2021/12/24 06:21:56;;;;;;;1.30;1.20;;;6.80;99.90;;;;;;5061088;28;20167;-79
2021/12/24 06:24:22;;;;;;;1.80;1.67;;;6.90;99.90;;;;;;5062467;28;20176;-80
2021/12/24 06:26:49;;;;;;;1.33;1.23;;;6.90;99.90;;;;;;5063409;28;20192;-79
2021/12/24 06:29:15;;;;;;;1.70;1.40;;;6.90;99.90;;;;;;5063774;28;20186;-79
2021/12/24 06:31:41;;;;;;;1.73;1.20;;;6.90;99.90;;;;;;5064157;28;20176;-79
2021/12/24 06:34:07;;;;;;;3.63;1.60;;;6.90;99.90;;;;;;5065017;28;20183;-79
2021/12/24 06:36:36;;;;;;;1.37;1.27;;;6.90;99.90;;;;;;5061085;28;20693;-78
2021/12/24 06:39:04;;;;;;;1.67;1.57;;;6.90;99.90;;;;;;5057203;28;20187;-79
2021/12/24 06:41:31;;;;;;;1.27;1.17;;;6.80;99.90;;;;;;5057031;28;20205;-79
2021/12/24 06:43:57;;;;;;;2.37;1.80;;;6.80;99.90;;;;;;5057453;28;20640;-79
2021/12/24 06:46:22;;;;;;;2.60;1.40;;;6.80;99.90;;;;;;5058389;28;20203;-78
2021/12/24 06:48:53;;;;;;;3.97;1.77;;;6.80;99.90;;;;;;5058228;28;20183;-79
2021/12/24 06:51:19;;;;;;;1.40;1.30;;;6.70;99.90;;;;;;5058775;28;20154;-79
2021/12/24 06:53:45;;;;;;;1.93;1.40;;;6.70;99.90;;;;;;5058716;28;20181;-79
2021/12/24 06:56:11;;;;;;;1.97;1.77;;;6.70;99.90;;;;;;5057966;28;20209;-79
2021/12/24 06:58:37;;;;;;;2.57;1.97;;;6.70;99.90;;;;;;5058327;28;20250;-79
2021/12/24 07:01:03;;;;;;;1.50;1.40;;;6.70;99.90;;;;;;5056871;28;20196;-79
2021/12/24 07:03:29;;;;;;;1.73;1.63;;;6.70;99.90;;;;;;5056677;28;20184;-79
2021/12/24 07:05:55;;;;;;;1.70;1.60;;;6.70;99.90;;;;;;5057892;28;20191;-80
2021/12/24 07:08:21;;;;;;;5.33;2.37;;;6.70;99.90;;;;;;5058336;28;20249;-79
2021/12/24 07:10:46;;;;;;;1.83;1.63;;;6.60;99.90;;;;;;5055892;28;20178;-79
2021/12/24 07:13:12;;;;;;;2.70;1.53;;;6.60;99.90;;;;;;5054963;28;20175;-79
2021/12/24 07:15:38;;;;;;;5.17;3.07;;;6.70;99.90;;;;;;5057169;28;20173;-79
2021/12/24 07:18:03;;;;;;;3.23;2.00;;;6.70;99.90;;;;;;5055294;28;20229;-78
2021/12/24 07:20:29;;;;;;;6.63;3.70;;;6.70;99.90;;;;;;5055763;28;20210;-81
2021/12/24 07:22:55;;;;;;;3.53;2.00;;;6.80;99.90;;;;;;5056047;28;20182;-79
2021/12/24 07:25:21;;;;;;;1.93;1.70;;;6.80;99.90;;;;;;5055092;28;20669;-79
2021/12/24 07:27:46;;;;;;;2.77;2.00;;;6.70;99.90;;;;;;5057618;28;20202;-79
2021/12/24 07:30:12;;;;;;;1.80;1.70;;;6.70;99.90;;;;;;5055908;28;20183;-79
2021/12/24 07:32:40;;;;;;;1.37;1.27;;;6.80;99.90;;;;;;5055692;28;20184;-79
2021/12/24 07:35:07;;;;;;;1.83;1.73;;;6.80;99.90;;;;;;5057699;28;20176;-79
2021/12/24 07:37:33;;;;;;;3.17;1.73;;;6.80;99.90;;;;;;5056532;28;20672;-79
2021/12/24 07:40:02;;;;;;;1.50;1.40;;;6.80;99.90;;;;;;5056707;28;20166;-79
2021/12/24 07:42:29;;;;;;;1.60;1.50;;;6.80;99.90;;;;;;5056408;28;20703;-80
2021/12/24 07:44:54;;;;;;;2.10;1.80;;;6.80;99.90;;;;;;5056410;28;20261;-79
2021/12/24 07:47:27;;;;;;;6.70;1.70;;;6.80;99.90;;;;;;5057138;28;20221;-79
2021/12/24 07:50:01;;;;;;;1.67;1.57;;;6.90;99.90;;;;;;5057574;28;20167;-79
2021/12/24 07:52:28;;;;;;;9.67;6.03;;;6.90;99.90;;;;;;5055325;28;20172;-79
2021/12/24 07:54:54;;;;;;;2.67;2.07;;;6.90;99.90;;;;;;5056330;28;20177;-79
2021/12/24 07:57:21;;;;;;;1.97;1.70;;;6.90;99.90;;;;;;5054663;28;20589;-79
2021/12/24 07:59:48;;;;;;;2.03;1.77;;;7.00;99.90;;;;;;5055517;28;20249;-79
2021/12/24 08:02:17;;;;;;;3.13;1.70;;;7.00;99.90;;;;;;5054970;28;20185;-79
2021/12/24 08:04:46;;;;;;;9.03;8.13;;;7.00;99.90;;;;;;5054239;28;20183;-79
2021/12/24 08:07:13;;;;;;;5.60;4.43;;;7.00;99.90;;;;;;5055866;28;20203;-79
2021/12/24 08:09:39;;;;;;;4.00;2.40;;;7.00;99.90;;;;;;5061901;28;20215;-79
2021/12/24 08:12:06;;;;;;;4.03;3.73;;;7.00;99.90;;;;;;5056969;28;20175;-79
2021/12/24 08:14:32;;;;;;;2.53;1.90;;;7.10;99.90;;;;;;5059115;28;20183;-79
2021/12/24 08:16:58;;;;;;;1.77;1.67;;;7.00;99.90;;;;;;5059245;28;20245;-79
2021/12/24 08:19:23;;;;;;;1.97;1.87;;;7.10;99.90;;;;;;5061392;28;20188;-79
2021/12/24 08:21:49;;;;;;;2.07;1.87;;;7.10;99.90;;;;;;5058516;28;20638;-79
2021/12/24 08:24:15;;;;;;;2.50;1.60;;;7.10;99.90;;;;;;5062872;28;20180;-79
2021/12/24 08:26:41;;;;;;;3.73;2.63;;;7.20;99.90;;;;;;5066653;28;20637;-79
2021/12/24 08:29:07;;;;;;;1.97;1.67;;;7.20;99.90;;;;;;5067451;28;20186;-78
2021/12/24 08:31:34;;;;;;;2.87;2.50;;;7.20;99.90;;;;;;5061733;28;20180;-79
2021/12/24 08:34:00;;;;;;;1.37;1.23;;;7.20;99.90;;;;;;5059008;28;20178;-79
2021/12/24 08:36:26;;;;;;;3.87;3.03;;;7.20;99.90;;;;;;5062868;28;20205;-79
2021/12/24 08:38:52;;;;;;;2.43;1.77;;;7.30;99.90;;;;;;5058326;28;20677;-79
2021/12/24 08:41:18;;;;;;;4.17;2.90;;;7.40;99.90;;;;;;5057501;28;20719;-79
